sensor_id;sensor_type;location;lat;lon;timestamp;P1;durP1;ratioP1;P2;durP2;ratioP2
72649;SDS011;61467;50.674;4.618;2022-12-18T00:00:39;22.42;;;10.25;;
72649;SDS011;61467;50.674;4.618;2022-12-18T00:03:07;23.83;;;10.88;;
72649;SDS011;61467;50.674;4.618;2022-12-18T00:05:34;23.88;;;11.25;;
72649;SDS011;61467;50.674;4.618;2022-12-18T00:08:01;26.73;;;11.73;;
72649;SDS011;61467;50.674;4.618;2022-12-18T00:10:28;24.50;;;12.27;;
72649;SDS011;61467;50.674;4.618;2022-12-18T00:12:55;26.13;;;10.55;;
72649;SDS011;61467;50.674;4.618;2022-12-18T00:15:22;20.27;;;9.07;;
72649;SDS011;61467;50.674;4.618;2022-12-18T00:17:49;23.15;;;9.68;;
72649;SDS011;61467;50.674;4.618;2022-12-18T00:20:17;26.27;;;11.25;;
72649;SDS011;61467;50.674;4.618;2022-12-18T00:22:50;22.90;;;9.60;;
72649;SDS011;61467;50.674;4.618;2022-12-18T00:25:17;20.75;;;8.95;;
72649;SDS011;61467;50.674;4.618;2022-12-18T00:27:44;20.48;;;8.85;;
72649;SDS011;61467;50.674;4.618;2022-12-18T00:30:11;16.50;;;7.75;;
72649;SDS011;61467;50.674;4.618;2022-12-18T00:32:38;15.93;;;7.10;;
72649;SDS011;61467;50.674;4.618;2022-12-18T00:35:07;15.83;;;7.67;;
72649;SDS011;61467;50.674;4.618;2022-12-18T00:37:36;16.73;;;6.93;;
72649;SDS011;61467;50.674;4.618;2022-12-18T00:40:02;15.57;;;7.43;;
72649;SDS011;61467;50.674;4.618;2022-12-18T00:42:30;15.93;;;6.97;;
72649;SDS011;61467;50.674;4.618;2022-12-18T00:45:14;13.13;;;5.68;;
72649;SDS011;61467;50.674;4.618;2022-12-18T00:47:41;12.80;;;5.70;;
72649;SDS011;61467;50.674;4.618;2022-12-18T00:50:08;14.30;;;6.30;;
72649;SDS011;61467;50.674;4.618;2022-12-18T00:52:37;20.05;;;6.72;;
72649;SDS011;61467;50.674;4.618;2022-12-18T00:55:03;14.90;;;6.05;;
72649;SDS011;61467;50.674;4.618;2022-12-18T00:57:31;14.65;;;6.82;;
72649;SDS011;61467;50.674;4.618;2022-12-18T00:59:57;19.27;;;9.13;;
72649;SDS011;61467;50.674;4.618;2022-12-18T01:02:24;17.33;;;7.57;;
72649;SDS011;61467;50.674;4.618;2022-12-18T01:04:51;17.33;;;8.82;;
72649;SDS011;61467;50.674;4.618;2022-12-18T01:07:18;18.08;;;9.18;;
72649;SDS011;61467;50.674;4.618;2022-12-18T01:09:46;15.23;;;7.68;;
72649;SDS011;61467;50.674;4.618;2022-12-18T01:12:12;18.47;;;7.97;;
72649;SDS011;61467;50.674;4.618;2022-12-18T01:14:39;17.38;;;7.78;;
72649;SDS011;61467;50.674;4.618;2022-12-18T01:17:06;16.90;;;8.60;;
72649;SDS011;61467;50.674;4.618;2022-12-18T01:19:33;17.52;;;8.70;;
72649;SDS011;61467;50.674;4.618;2022-12-18T01:21:59;20.30;;;9.25;;
72649;SDS011;61467;50.674;4.618;2022-12-18T01:24:26;20.27;;;8.33;;
72649;SDS011;61467;50.674;4.618;2022-12-18T01:26:54;18.67;;;8.63;;
72649;SDS011;61467;50.674;4.618;2022-12-18T01:29:22;20.95;;;9.15;;
72649;SDS011;61467;50.674;4.618;2022-12-18T01:31:49;25.00;;;9.80;;
72649;SDS011;61467;50.674;4.618;2022-12-18T01:34:16;18.98;;;8.45;;
72649;SDS011;61467;50.674;4.618;2022-12-18T01:36:43;15.00;;;6.63;;
72649;SDS011;61467;50.674;4.618;2022-12-18T01:39:10;17.10;;;6.40;;
72649;SDS011;61467;50.674;4.618;2022-12-18T01:41:38;18.08;;;7.40;;
72649;SDS011;61467;50.674;4.618;2022-12-18T01:47:22;16.67;;;6.88;;
72649;SDS011;61467;50.674;4.618;2022-12-18T01:49:51;16.50;;;7.20;;
72649;SDS011;61467;50.674;4.618;2022-12-18T01:52:18;22.50;;;8.85;;
72649;SDS011;61467;50.674;4.618;2022-12-18T01:54:46;25.95;;;9.95;;
72649;SDS011;61467;50.674;4.618;2022-12-18T01:57:15;17.60;;;7.35;;
72649;SDS011;61467;50.674;4.618;2022-12-18T01:59:43;14.02;;;6.65;;
72649;SDS011;61467;50.674;4.618;2022-12-18T02:02:15;15.00;;;6.97;;
72649;SDS011;61467;50.674;4.618;2022-12-18T02:04:42;15.30;;;6.70;;
72649;SDS011;61467;50.674;4.618;2022-12-18T02:07:10;18.10;;;7.18;;
72649;SDS011;61467;50.674;4.618;2022-12-18T02:09:45;19.38;;;6.97;;
72649;SDS011;61467;50.674;4.618;2022-12-18T02:12:16;18.77;;;7.95;;
72649;SDS011;61467;50.674;4.618;2022-12-18T02:14:47;19.50;;;7.97;;
72649;SDS011;61467;50.674;4.618;2022-12-18T02:17:23;16.88;;;6.68;;
72649;SDS011;61467;50.674;4.618;2022-12-18T02:19:59;20.58;;;8.35;;
72649;SDS011;61467;50.674;4.618;2022-12-18T02:22:35;17.98;;;7.85;;
72649;SDS011;61467;50.674;4.618;2022-12-18T02:25:13;16.27;;;6.97;;
72649;SDS011;61467;50.674;4.618;2022-12-18T02:27:52;20.03;;;7.80;;
72649;SDS011;61467;50.674;4.618;2022-12-18T02:30:20;16.65;;;7.55;;
72649;SDS011;61467;50.674;4.618;2022-12-18T02:32:49;15.98;;;5.90;;
72649;SDS011;61467;50.674;4.618;2022-12-18T02:35:19;13.68;;;5.53;;
72649;SDS011;61467;50.674;4.618;2022-12-18T02:37:49;11.57;;;5.45;;
72649;SDS011;61467;50.674;4.618;2022-12-18T02:40:17;17.17;;;6.67;;
72649;SDS011;61467;50.674;4.618;2022-12-18T02:42:45;23.10;;;10.30;;
72649;SDS011;61467;50.674;4.618;2022-12-18T02:45:13;27.42;;;9.82;;
72649;SDS011;61467;50.674;4.618;2022-12-18T02:47:40;26.83;;;8.48;;
72649;SDS011;61467;50.674;4.618;2022-12-18T02:50:11;22.90;;;9.45;;
72649;SDS011;61467;50.674;4.618;2022-12-18T02:52:46;17.37;;;7.37;;
72649;SDS011;61467;50.674;4.618;2022-12-18T02:55:25;17.67;;;7.03;;
72649;SDS011;61467;50.674;4.618;2022-12-18T02:57:58;23.05;;;9.50;;
72649;SDS011;61467;50.674;4.618;2022-12-18T03:00:34;22.73;;;8.98;;
72649;SDS011;61467;50.674;4.618;2022-12-18T03:03:06;36.78;;;14.00;;
72649;SDS011;61467;50.674;4.618;2022-12-18T03:05:38;33.77;;;13.00;;
72649;SDS011;61467;50.674;4.618;2022-12-18T03:08:10;32.13;;;11.05;;
72649;SDS011;61467;50.674;4.618;2022-12-18T03:10:44;34.83;;;12.23;;
72649;SDS011;61467;50.674;4.618;2022-12-18T03:13:15;27.73;;;10.00;;
72649;SDS011;61467;50.674;4.618;2022-12-18T03:15:49;23.10;;;9.27;;
72649;SDS011;61467;50.674;4.618;2022-12-18T03:18:19;13.57;;;6.00;;
72649;SDS011;61467;50.674;4.618;2022-12-18T03:20:49;11.85;;;5.00;;
72649;SDS011;61467;50.674;4.618;2022-12-18T03:23:20;12.98;;;5.50;;
72649;SDS011;61467;50.674;4.618;2022-12-18T03:25:51;14.05;;;5.28;;
72649;SDS011;61467;50.674;4.618;2022-12-18T03:28:20;11.93;;;5.32;;
72649;SDS011;61467;50.674;4.618;2022-12-18T03:30:51;10.87;;;4.67;;
72649;SDS011;61467;50.674;4.618;2022-12-18T03:33:24;13.07;;;5.75;;
72649;SDS011;61467;50.674;4.618;2022-12-18T03:35:53;13.35;;;6.07;;
72649;SDS011;61467;50.674;4.618;2022-12-18T03:38:20;12.07;;;5.03;;
72649;SDS011;61467;50.674;4.618;2022-12-18T03:40:52;13.43;;;5.22;;
72649;SDS011;61467;50.674;4.618;2022-12-18T03:43:29;15.10;;;5.97;;
72649;SDS011;61467;50.674;4.618;2022-12-18T03:46:06;13.15;;;5.82;;
72649;SDS011;61467;50.674;4.618;2022-12-18T03:48:38;13.98;;;6.30;;
72649;SDS011;61467;50.674;4.618;2022-12-18T03:51:11;15.13;;;6.32;;
72649;SDS011;61467;50.674;4.618;2022-12-18T03:53:43;14.32;;;5.57;;
72649;SDS011;61467;50.674;4.618;2022-12-18T03:56:15;14.47;;;5.87;;
72649;SDS011;61467;50.674;4.618;2022-12-18T03:58:43;14.55;;;5.68;;
72649;SDS011;61467;50.674;4.618;2022-12-18T04:01:13;11.75;;;4.85;;
72649;SDS011;61467;50.674;4.618;2022-12-18T04:03:42;12.68;;;5.07;;
72649;SDS011;61467;50.674;4.618;2022-12-18T04:06:10;16.00;;;6.30;;
72649;SDS011;61467;50.674;4.618;2022-12-18T04:08:37;14.83;;;6.27;;
72649;SDS011;61467;50.674;4.618;2022-12-18T04:11:05;14.57;;;5.95;;
72649;SDS011;61467;50.674;4.618;2022-12-18T04:13:32;18.40;;;6.78;;
72649;SDS011;61467;50.674;4.618;2022-12-18T04:16:02;13.35;;;6.05;;
72649;SDS011;61467;50.674;4.618;2022-12-18T04:18:30;15.15;;;6.35;;
72649;SDS011;61467;50.674;4.618;2022-12-18T04:20:57;12.07;;;5.57;;
72649;SDS011;61467;50.674;4.618;2022-12-18T04:23:24;11.90;;;5.68;;
72649;SDS011;61467;50.674;4.618;2022-12-18T04:25:50;13.25;;;6.03;;
72649;SDS011;61467;50.674;4.618;2022-12-18T04:28:17;14.10;;;6.70;;
72649;SDS011;61467;50.674;4.618;2022-12-18T04:30:44;12.93;;;6.35;;
72649;SDS011;61467;50.674;4.618;2022-12-18T04:33:13;15.17;;;6.13;;
72649;SDS011;61467;50.674;4.618;2022-12-18T04:35:41;15.27;;;6.65;;
72649;SDS011;61467;50.674;4.618;2022-12-18T04:38:08;15.25;;;6.55;;
72649;SDS011;61467;50.674;4.618;2022-12-18T04:40:36;15.57;;;6.00;;
72649;SDS011;61467;50.674;4.618;2022-12-18T04:43:02;15.55;;;6.90;;
72649;SDS011;61467;50.674;4.618;2022-12-18T04:45:30;24.10;;;8.90;;
72649;SDS011;61467;50.674;4.618;2022-12-18T04:47:57;24.15;;;8.95;;
72649;SDS011;61467;50.674;4.618;2022-12-18T04:50:23;27.92;;;10.18;;
72649;SDS011;61467;50.674;4.618;2022-12-18T04:52:52;23.58;;;10.15;;
72649;SDS011;61467;50.674;4.618;2022-12-18T04:55:19;26.15;;;9.73;;
72649;SDS011;61467;50.674;4.618;2022-12-18T04:57:46;19.57;;;8.87;;
72649;SDS011;61467;50.674;4.618;2022-12-18T05:00:13;21.15;;;8.18;;
72649;SDS011;61467;50.674;4.618;2022-12-18T05:02:40;12.90;;;6.10;;
72649;SDS011;61467;50.674;4.618;2022-12-18T05:05:07;12.98;;;5.82;;
72649;SDS011;61467;50.674;4.618;2022-12-18T05:07:34;12.93;;;5.97;;
72649;SDS011;61467;50.674;4.618;2022-12-18T05:10:03;13.60;;;5.63;;
72649;SDS011;61467;50.674;4.618;2022-12-18T05:12:34;14.35;;;5.53;;
72649;SDS011;61467;50.674;4.618;2022-12-18T05:15:21;11.57;;;5.28;;
72649;SDS011;61467;50.674;4.618;2022-12-18T05:17:47;12.30;;;5.57;;
72649;SDS011;61467;50.674;4.618;2022-12-18T05:20:14;13.07;;;6.22;;
72649;SDS011;61467;50.674;4.618;2022-12-18T05:22:41;13.67;;;5.67;;
72649;SDS011;61467;50.674;4.618;2022-12-18T05:25:09;13.25;;;5.95;;
72649;SDS011;61467;50.674;4.618;2022-12-18T05:27:36;14.77;;;7.00;;
72649;SDS011;61467;50.674;4.618;2022-12-18T05:30:03;15.77;;;7.05;;
72649;SDS011;61467;50.674;4.618;2022-12-18T05:32:30;16.00;;;7.18;;
72649;SDS011;61467;50.674;4.618;2022-12-18T05:34:57;16.97;;;6.33;;
72649;SDS011;61467;50.674;4.618;2022-12-18T05:37:23;13.23;;;6.05;;
72649;SDS011;61467;50.674;4.618;2022-12-18T05:39:50;16.08;;;6.43;;
72649;SDS011;61467;50.674;4.618;2022-12-18T05:42:18;12.35;;;5.28;;
72649;SDS011;61467;50.674;4.618;2022-12-18T05:44:45;15.73;;;6.28;;
72649;SDS011;61467;50.674;4.618;2022-12-18T05:47:12;15.07;;;6.40;;
72649;SDS011;61467;50.674;4.618;2022-12-18T05:49:39;13.85;;;5.85;;
72649;SDS011;61467;50.674;4.618;2022-12-18T05:52:05;15.82;;;6.30;;
72649;SDS011;61467;50.674;4.618;2022-12-18T05:54:32;14.40;;;6.13;;
72649;SDS011;61467;50.674;4.618;2022-12-18T05:56:59;15.07;;;6.53;;
72649;SDS011;61467;50.674;4.618;2022-12-18T05:59:27;18.13;;;6.03;;
72649;SDS011;61467;50.674;4.618;2022-12-18T06:01:54;17.63;;;6.00;;
72649;SDS011;61467;50.674;4.618;2022-12-18T06:04:21;13.60;;;6.45;;
72649;SDS011;61467;50.674;4.618;2022-12-18T06:06:47;16.55;;;6.13;;
72649;SDS011;61467;50.674;4.618;2022-12-18T06:09:14;13.68;;;5.25;;
72649;SDS011;61467;50.674;4.618;2022-12-18T06:11:41;11.37;;;4.70;;
72649;SDS011;61467;50.674;4.618;2022-12-18T06:14:08;16.33;;;5.25;;
72649;SDS011;61467;50.674;4.618;2022-12-18T06:16:37;15.50;;;7.03;;
72649;SDS011;61467;50.674;4.618;2022-12-18T06:19:05;16.25;;;6.50;;
72649;SDS011;61467;50.674;4.618;2022-12-18T06:21:32;13.63;;;5.65;;
72649;SDS011;61467;50.674;4.618;2022-12-18T06:23:59;14.43;;;5.20;;
72649;SDS011;61467;50.674;4.618;2022-12-18T06:26:26;13.95;;;5.97;;
72649;SDS011;61467;50.674;4.618;2022-12-18T06:28:53;12.27;;;4.82;;
72649;SDS011;61467;50.674;4.618;2022-12-18T06:31:20;11.57;;;4.93;;
72649;SDS011;61467;50.674;4.618;2022-12-18T06:33:48;13.63;;;5.68;;
72649;SDS011;61467;50.674;4.618;2022-12-18T06:36:15;14.97;;;6.00;;
72649;SDS011;61467;50.674;4.618;2022-12-18T06:38:42;20.40;;;7.80;;
72649;SDS011;61467;50.674;4.618;2022-12-18T06:41:10;17.33;;;6.60;;
72649;SDS011;61467;50.674;4.618;2022-12-18T06:43:38;17.85;;;6.32;;
72649;SDS011;61467;50.674;4.618;2022-12-18T06:46:05;13.52;;;5.55;;
72649;SDS011;61467;50.674;4.618;2022-12-18T06:48:32;11.23;;;4.90;;
72649;SDS011;61467;50.674;4.618;2022-12-18T06:51:00;10.55;;;4.65;;
72649;SDS011;61467;50.674;4.618;2022-12-18T06:53:27;11.73;;;4.85;;
72649;SDS011;61467;50.674;4.618;2022-12-18T06:55:59;9.65;;;4.45;;
72649;SDS011;61467;50.674;4.618;2022-12-18T06:58:26;11.00;;;3.95;;
72649;SDS011;61467;50.674;4.618;2022-12-18T07:00:53;10.57;;;4.00;;
72649;SDS011;61467;50.674;4.618;2022-12-18T07:03:25;9.95;;;4.18;;
72649;SDS011;61467;50.674;4.618;2022-12-18T07:05:51;10.23;;;4.95;;
72649;SDS011;61467;50.674;4.618;2022-12-18T07:08:19;10.63;;;3.90;;
72649;SDS011;61467;50.674;4.618;2022-12-18T07:10:46;9.50;;;4.18;;
72649;SDS011;61467;50.674;4.618;2022-12-18T07:13:14;12.97;;;4.70;;
72649;SDS011;61467;50.674;4.618;2022-12-18T07:15:42;11.45;;;4.80;;
72649;SDS011;61467;50.674;4.618;2022-12-18T07:18:09;10.38;;;4.07;;
72649;SDS011;61467;50.674;4.618;2022-12-18T07:20:36;10.85;;;4.55;;
72649;SDS011;61467;50.674;4.618;2022-12-18T07:23:03;9.18;;;3.95;;
72649;SDS011;61467;50.674;4.618;2022-12-18T07:25:32;9.77;;;4.43;;
72649;SDS011;61467;50.674;4.618;2022-12-18T07:27:59;10.85;;;4.25;;
72649;SDS011;61467;50.674;4.618;2022-12-18T07:30:26;12.65;;;5.00;;
72649;SDS011;61467;50.674;4.618;2022-12-18T07:32:53;9.68;;;4.10;;
72649;SDS011;61467;50.674;4.618;2022-12-18T07:35:20;12.77;;;5.10;;
72649;SDS011;61467;50.674;4.618;2022-12-18T07:37:46;10.17;;;3.83;;
72649;SDS011;61467;50.674;4.618;2022-12-18T07:40:13;9.73;;;4.05;;
72649;SDS011;61467;50.674;4.618;2022-12-18T07:42:41;14.02;;;5.50;;
72649;SDS011;61467;50.674;4.618;2022-12-18T07:45:08;11.15;;;5.05;;
72649;SDS011;61467;50.674;4.618;2022-12-18T07:47:35;11.35;;;4.90;;
72649;SDS011;61467;50.674;4.618;2022-12-18T07:50:03;12.97;;;4.60;;
72649;SDS011;61467;50.674;4.618;2022-12-18T07:52:31;11.02;;;5.15;;
72649;SDS011;61467;50.674;4.618;2022-12-18T07:54:57;10.65;;;5.25;;
72649;SDS011;61467;50.674;4.618;2022-12-18T07:57:24;12.40;;;4.05;;
72649;SDS011;61467;50.674;4.618;2022-12-18T07:59:52;12.65;;;4.57;;
72649;SDS011;61467;50.674;4.618;2022-12-18T08:02:19;11.73;;;4.07;;
72649;SDS011;61467;50.674;4.618;2022-12-18T08:04:46;12.60;;;4.72;;
72649;SDS011;61467;50.674;4.618;2022-12-18T08:07:12;14.05;;;5.57;;
72649;SDS011;61467;50.674;4.618;2022-12-18T08:09:40;12.43;;;4.25;;
72649;SDS011;61467;50.674;4.618;2022-12-18T08:12:07;12.98;;;5.47;;
72649;SDS011;61467;50.674;4.618;2022-12-18T08:14:33;13.27;;;4.93;;
72649;SDS011;61467;50.674;4.618;2022-12-18T08:17:01;12.40;;;4.85;;
72649;SDS011;61467;50.674;4.618;2022-12-18T08:19:28;14.82;;;5.90;;
72649;SDS011;61467;50.674;4.618;2022-12-18T08:21:55;14.88;;;5.80;;
72649;SDS011;61467;50.674;4.618;2022-12-18T08:24:22;16.65;;;6.35;;
72649;SDS011;61467;50.674;4.618;2022-12-18T08:26:48;12.87;;;5.87;;
72649;SDS011;61467;50.674;4.618;2022-12-18T08:29:15;13.70;;;5.32;;
72649;SDS011;61467;50.674;4.618;2022-12-18T08:31:42;11.98;;;4.68;;
72649;SDS011;61467;50.674;4.618;2022-12-18T08:34:10;12.45;;;4.75;;
72649;SDS011;61467;50.674;4.618;2022-12-18T08:36:37;13.77;;;5.50;;
72649;SDS011;61467;50.674;4.618;2022-12-18T08:39:03;11.63;;;5.57;;
72649;SDS011;61467;50.674;4.618;2022-12-18T08:41:30;13.88;;;5.45;;
72649;SDS011;61467;50.674;4.618;2022-12-18T08:43:57;12.85;;;5.63;;
72649;SDS011;61467;50.674;4.618;2022-12-18T08:46:42;12.95;;;5.22;;
72649;SDS011;61467;50.674;4.618;2022-12-18T08:49:10;12.90;;;5.25;;
72649;SDS011;61467;50.674;4.618;2022-12-18T08:51:38;12.47;;;5.40;;
72649;SDS011;61467;50.674;4.618;2022-12-18T08:54:05;11.38;;;4.93;;
72649;SDS011;61467;50.674;4.618;2022-12-18T08:56:32;13.80;;;6.25;;
72649;SDS011;61467;50.674;4.618;2022-12-18T08:59:00;12.13;;;5.32;;
72649;SDS011;61467;50.674;4.618;2022-12-18T09:01:26;12.13;;;4.75;;
72649;SDS011;61467;50.674;4.618;2022-12-18T09:03:53;11.97;;;4.50;;
72649;SDS011;61467;50.674;4.618;2022-12-18T09:06:22;12.23;;;5.13;;
72649;SDS011;61467;50.674;4.618;2022-12-18T09:08:49;13.95;;;5.60;;
72649;SDS011;61467;50.674;4.618;2022-12-18T09:11:18;13.57;;;5.15;;
72649;SDS011;61467;50.674;4.618;2022-12-18T09:13:47;12.40;;;5.70;;
72649;SDS011;61467;50.674;4.618;2022-12-18T09:16:14;14.00;;;5.20;;
72649;SDS011;61467;50.674;4.618;2022-12-18T09:18:41;16.50;;;6.47;;
72649;SDS011;61467;50.674;4.618;2022-12-18T09:21:08;11.95;;;5.13;;
72649;SDS011;61467;50.674;4.618;2022-12-18T09:23:37;11.80;;;5.65;;
72649;SDS011;61467;50.674;4.618;2022-12-18T09:26:04;13.40;;;5.75;;
72649;SDS011;61467;50.674;4.618;2022-12-18T09:28:31;13.57;;;6.10;;
72649;SDS011;61467;50.674;4.618;2022-12-18T09:30:58;11.88;;;5.22;;
72649;SDS011;61467;50.674;4.618;2022-12-18T09:33:24;16.15;;;6.80;;
72649;SDS011;61467;50.674;4.618;2022-12-18T09:35:51;14.07;;;6.10;;
72649;SDS011;61467;50.674;4.618;2022-12-18T09:38:19;12.82;;;5.72;;
72649;SDS011;61467;50.674;4.618;2022-12-18T09:40:48;13.17;;;6.10;;
72649;SDS011;61467;50.674;4.618;2022-12-18T09:43:18;12.80;;;5.32;;
72649;SDS011;61467;50.674;4.618;2022-12-18T09:45:51;14.65;;;6.78;;
72649;SDS011;61467;50.674;4.618;2022-12-18T09:48:21;13.48;;;6.03;;
72649;SDS011;61467;50.674;4.618;2022-12-18T09:50:52;12.48;;;5.57;;
72649;SDS011;61467;50.674;4.618;2022-12-18T09:53:24;11.17;;;5.53;;
72649;SDS011;61467;50.674;4.618;2022-12-18T09:55:55;14.98;;;6.57;;
72649;SDS011;61467;50.674;4.618;2022-12-18T09:58:24;13.80;;;5.72;;
72649;SDS011;61467;50.674;4.618;2022-12-18T10:00:54;14.85;;;6.43;;
72649;SDS011;61467;50.674;4.618;2022-12-18T10:03:21;13.70;;;6.05;;
72649;SDS011;61467;50.674;4.618;2022-12-18T10:05:51;15.67;;;5.90;;
72649;SDS011;61467;50.674;4.618;2022-12-18T10:08:24;13.68;;;6.65;;
72649;SDS011;61467;50.674;4.618;2022-12-18T10:11:03;13.70;;;6.45;;
72649;SDS011;61467;50.674;4.618;2022-12-18T10:13:53;12.95;;;6.35;;
72649;SDS011;61467;50.674;4.618;2022-12-18T10:16:31;12.32;;;5.68;;
72649;SDS011;61467;50.674;4.618;2022-12-18T10:19:11;13.77;;;6.13;;
72649;SDS011;61467;50.674;4.618;2022-12-18T10:21:51;15.60;;;6.57;;
72649;SDS011;61467;50.674;4.618;2022-12-18T10:24:24;17.85;;;7.15;;
72649;SDS011;61467;50.674;4.618;2022-12-18T10:29:35;16.88;;;6.57;;
72649;SDS011;61467;50.674;4.618;2022-12-18T10:32:03;13.77;;;6.57;;
72649;SDS011;61467;50.674;4.618;2022-12-18T10:34:30;14.32;;;7.07;;
72649;SDS011;61467;50.674;4.618;2022-12-18T10:36:57;15.10;;;6.95;;
72649;SDS011;61467;50.674;4.618;2022-12-18T10:39:27;13.43;;;6.68;;
72649;SDS011;61467;50.674;4.618;2022-12-18T10:41:59;15.48;;;7.18;;
72649;SDS011;61467;50.674;4.618;2022-12-18T10:44:41;13.93;;;6.40;;
72649;SDS011;61467;50.674;4.618;2022-12-18T10:47:11;17.55;;;6.43;;
72649;SDS011;61467;50.674;4.618;2022-12-18T10:49:41;13.98;;;6.20;;
72649;SDS011;61467;50.674;4.618;2022-12-18T10:52:14;14.27;;;6.15;;
72649;SDS011;61467;50.674;4.618;2022-12-18T10:54:46;13.05;;;6.45;;
72649;SDS011;61467;50.674;4.618;2022-12-18T10:57:17;13.13;;;6.43;;
72649;SDS011;61467;50.674;4.618;2022-12-18T10:59:57;12.52;;;5.68;;
72649;SDS011;61467;50.674;4.618;2022-12-18T11:02:26;15.25;;;6.32;;
72649;SDS011;61467;50.674;4.618;2022-12-18T11:04:59;11.65;;;5.82;;
72649;SDS011;61467;50.674;4.618;2022-12-18T11:07:26;15.57;;;6.45;;
72649;SDS011;61467;50.674;4.618;2022-12-18T11:10:15;15.23;;;6.37;;
72649;SDS011;61467;50.674;4.618;2022-12-18T11:12:44;13.73;;;5.63;;
72649;SDS011;61467;50.674;4.618;2022-12-18T11:15:14;16.92;;;7.22;;
72649;SDS011;61467;50.674;4.618;2022-12-18T11:17:42;17.17;;;6.18;;
72649;SDS011;61467;50.674;4.618;2022-12-18T11:20:19;14.27;;;6.22;;
72649;SDS011;61467;50.674;4.618;2022-12-18T11:22:56;14.83;;;6.70;;
72649;SDS011;61467;50.674;4.618;2022-12-18T11:25:24;15.77;;;6.55;;
72649;SDS011;61467;50.674;4.618;2022-12-18T11:27:54;14.15;;;6.47;;
72649;SDS011;61467;50.674;4.618;2022-12-18T11:30:23;15.27;;;6.72;;
72649;SDS011;61467;50.674;4.618;2022-12-18T11:32:53;15.30;;;6.55;;
72649;SDS011;61467;50.674;4.618;2022-12-18T11:35:24;15.57;;;6.40;;
72649;SDS011;61467;50.674;4.618;2022-12-18T11:38:01;13.60;;;6.93;;
72649;SDS011;61467;50.674;4.618;2022-12-18T11:40:33;15.52;;;6.82;;
72649;SDS011;61467;50.674;4.618;2022-12-18T11:43:06;16.75;;;6.90;;
72649;SDS011;61467;50.674;4.618;2022-12-18T11:45:40;17.90;;;7.28;;
72649;SDS011;61467;50.674;4.618;2022-12-18T11:48:12;17.27;;;7.23;;
72649;SDS011;61467;50.674;4.618;2022-12-18T11:50:44;17.10;;;7.72;;
72649;SDS011;61467;50.674;4.618;2022-12-18T11:53:14;14.90;;;7.30;;
72649;SDS011;61467;50.674;4.618;2022-12-18T11:55:43;17.35;;;7.18;;
72649;SDS011;61467;50.674;4.618;2022-12-18T11:58:21;16.98;;;8.25;;
72649;SDS011;61467;50.674;4.618;2022-12-18T12:00:56;14.10;;;6.93;;
72649;SDS011;61467;50.674;4.618;2022-12-18T12:03:38;16.83;;;8.35;;
72649;SDS011;61467;50.674;4.618;2022-12-18T12:06:14;15.50;;;7.55;;
72649;SDS011;61467;50.674;4.618;2022-12-18T12:09:00;18.17;;;8.60;;
72649;SDS011;61467;50.674;4.618;2022-12-18T12:11:35;17.17;;;8.43;;
72649;SDS011;61467;50.674;4.618;2022-12-18T12:14:17;16.23;;;8.00;;
72649;SDS011;61467;50.674;4.618;2022-12-18T12:17:03;17.20;;;7.78;;
72649;SDS011;61467;50.674;4.618;2022-12-18T12:19:40;15.93;;;7.80;;
72649;SDS011;61467;50.674;4.618;2022-12-18T12:22:16;16.77;;;8.10;;
72649;SDS011;61467;50.674;4.618;2022-12-18T12:24:51;20.05;;;9.23;;
72649;SDS011;61467;50.674;4.618;2022-12-18T12:27:30;21.93;;;8.30;;
72649;SDS011;61467;50.674;4.618;2022-12-18T12:30:06;16.83;;;7.68;;
72649;SDS011;61467;50.674;4.618;2022-12-18T12:32:38;19.13;;;7.60;;
72649;SDS011;61467;50.674;4.618;2022-12-18T12:35:17;16.83;;;7.75;;
72649;SDS011;61467;50.674;4.618;2022-12-18T12:37:54;17.38;;;8.30;;
72649;SDS011;61467;50.674;4.618;2022-12-18T12:40:31;16.23;;;7.47;;
72649;SDS011;61467;50.674;4.618;2022-12-18T12:43:01;18.35;;;8.50;;
72649;SDS011;61467;50.674;4.618;2022-12-18T12:45:47;16.17;;;8.55;;
72649;SDS011;61467;50.674;4.618;2022-12-18T12:48:19;19.75;;;8.43;;
72649;SDS011;61467;50.674;4.618;2022-12-18T12:50:52;19.73;;;8.80;;
72649;SDS011;61467;50.674;4.618;2022-12-18T12:53:22;19.03;;;8.13;;
72649;SDS011;61467;50.674;4.618;2022-12-18T12:55:52;17.45;;;8.52;;
72649;SDS011;61467;50.674;4.618;2022-12-18T12:58:23;19.27;;;9.38;;
72649;SDS011;61467;50.674;4.618;2022-12-18T13:01:00;21.08;;;9.07;;
72649;SDS011;61467;50.674;4.618;2022-12-18T13:03:40;17.67;;;8.02;;
72649;SDS011;61467;50.674;4.618;2022-12-18T13:06:14;17.63;;;8.33;;
72649;SDS011;61467;50.674;4.618;2022-12-18T13:08:52;19.25;;;9.02;;
72649;SDS011;61467;50.674;4.618;2022-12-18T13:11:34;20.42;;;9.27;;
72649;SDS011;61467;50.674;4.618;2022-12-18T13:14:24;18.23;;;8.45;;
72649;SDS011;61467;50.674;4.618;2022-12-18T13:20:02;19.53;;;8.47;;
72649;SDS011;61467;50.674;4.618;2022-12-18T13:22:35;21.95;;;10.07;;
72649;SDS011;61467;50.674;4.618;2022-12-18T13:25:03;20.73;;;9.25;;
72649;SDS011;61467;50.674;4.618;2022-12-18T13:30:44;20.80;;;9.55;;
72649;SDS011;61467;50.674;4.618;2022-12-18T13:36:12;22.75;;;9.48;;
72649;SDS011;61467;50.674;4.618;2022-12-18T13:41:50;19.90;;;9.13;;
72649;SDS011;61467;50.674;4.618;2022-12-18T13:44:24;21.83;;;10.30;;
72649;SDS011;61467;50.674;4.618;2022-12-18T13:46:58;23.33;;;9.23;;
72649;SDS011;61467;50.674;4.618;2022-12-18T13:49:28;23.85;;;9.70;;
72649;SDS011;61467;50.674;4.618;2022-12-18T13:52:03;26.65;;;11.13;;
72649;SDS011;61467;50.674;4.618;2022-12-18T13:54:42;19.58;;;8.73;;
72649;SDS011;61467;50.674;4.618;2022-12-18T13:57:25;20.17;;;8.98;;
72649;SDS011;61467;50.674;4.618;2022-12-18T13:59:53;21.40;;;8.23;;
72649;SDS011;61467;50.674;4.618;2022-12-18T14:02:21;23.50;;;9.52;;
72649;SDS011;61467;50.674;4.618;2022-12-18T14:04:51;24.75;;;11.05;;
72649;SDS011;61467;50.674;4.618;2022-12-18T14:07:20;23.48;;;10.35;;
72649;SDS011;61467;50.674;4.618;2022-12-18T14:09:49;23.08;;;10.57;;
72649;SDS011;61467;50.674;4.618;2022-12-18T14:12:18;21.13;;;9.93;;
72649;SDS011;61467;50.674;4.618;2022-12-18T14:15:06;22.33;;;10.05;;
72649;SDS011;61467;50.674;4.618;2022-12-18T14:17:41;23.73;;;9.57;;
72649;SDS011;61467;50.674;4.618;2022-12-18T14:20:14;28.23;;;10.95;;
72649;SDS011;61467;50.674;4.618;2022-12-18T14:22:42;22.75;;;10.02;;
72649;SDS011;61467;50.674;4.618;2022-12-18T14:25:15;25.67;;;10.83;;
72649;SDS011;61467;50.674;4.618;2022-12-18T14:27:44;22.85;;;9.90;;
72649;SDS011;61467;50.674;4.618;2022-12-18T14:32:59;24.63;;;11.30;;
72649;SDS011;61467;50.674;4.618;2022-12-18T14:35:28;21.65;;;9.80;;
72649;SDS011;61467;50.674;4.618;2022-12-18T14:38:17;22.80;;;9.83;;
72649;SDS011;61467;50.674;4.618;2022-12-18T14:40:51;23.98;;;10.25;;
72649;SDS011;61467;50.674;4.618;2022-12-18T14:43:19;24.35;;;10.48;;
72649;SDS011;61467;50.674;4.618;2022-12-18T14:45:46;23.85;;;11.10;;
72649;SDS011;61467;50.674;4.618;2022-12-18T14:48:16;24.02;;;10.15;;
72649;SDS011;61467;50.674;4.618;2022-12-18T14:50:45;24.97;;;9.93;;
72649;SDS011;61467;50.674;4.618;2022-12-18T14:53:22;24.40;;;10.07;;
72649;SDS011;61467;50.674;4.618;2022-12-18T14:55:54;23.63;;;10.35;;
72649;SDS011;61467;50.674;4.618;2022-12-18T14:58:21;25.40;;;11.23;;
72649;SDS011;61467;50.674;4.618;2022-12-18T15:00:48;25.98;;;11.15;;
72649;SDS011;61467;50.674;4.618;2022-12-18T15:03:16;26.17;;;11.80;;
72649;SDS011;61467;50.674;4.618;2022-12-18T15:05:47;24.08;;;10.50;;
72649;SDS011;61467;50.674;4.618;2022-12-18T15:08:31;28.30;;;11.10;;
72649;SDS011;61467;50.674;4.618;2022-12-18T15:11:02;21.83;;;10.18;;